Time;durP1;ratioP1;P1;durP2;ratioP2;P2;SDS_P1;SDS_P2;PMS_P1;PMS_P2;Temp;Humidity;BMP_temperature;BMP_pressure;BME280_temperature;BME280_humidity;BME280_pressure;Samples;Min_cycle;Max_cycle;Signal;HPM_P1;HPM_P2
2023/01/18 00:00:29;;;;;;;13.38;7.03;;;;;;;-0.48;76.15;98977.75;5007427;28;20082;-57
2023/01/18 00:02:55;;;;;;;14.02;7.20;;;;;;;-0.50;76.18;98969.22;5002757;28;20110;-60
2023/01/18 00:05:21;;;;;;;9.95;4.57;;;;;;;-0.54;76.15;98967.69;5005541;28;20082;-59
2023/01/18 00:07:51;;;;;;;18.73;8.07;;;;;;;-0.59;75.75;98964.44;5009576;28;20089;-57
2023/01/18 00:10:17;;;;;;;15.30;7.90;;;;;;;-0.66;76.26;98966.44;5004204;28;20085;-57
2023/01/18 00:12:42;;;;;;;16.60;8.15;;;;;;;-0.68;77.03;98965.66;4999050;28;20078;-61
2023/01/18 00:15:08;;;;;;;17.88;7.35;;;;;;;-0.68;76.52;98952.72;5003141;28;20344;-59
2023/01/18 00:17:46;;;;;;;17.15;8.23;;;;;;;-0.65;76.94;98956.03;5004713;28;20169;-61
2023/01/18 00:20:12;;;;;;;15.05;7.15;;;;;;;-0.67;76.16;98957.81;5000331;28;21037;-63
2023/01/18 00:22:38;;;;;;;12.95;7.68;;;;;;;-0.68;76.56;98955.31;5001380;28;20086;-59
2023/01/18 00:25:04;;;;;;;16.90;9.25;;;;;;;-0.73;76.58;98946.91;5004920;28;20223;-59
2023/01/18 00:27:29;;;;;;;16.17;7.97;;;;;;;-0.73;76.35;98952.06;5002998;28;20086;-57
2023/01/18 00:29:56;;;;;;;13.40;7.18;;;;;;;-0.79;76.30;98951.44;5004676;28;20093;-58
2023/01/18 00:32:22;;;;;;;13.70;6.80;;;;;;;-0.79;76.55;98959.19;5007488;28;20433;-61
2023/01/18 00:34:47;;;;;;;20.10;7.38;;;;;;;-0.77;76.13;98956.53;5001091;28;20105;-60
2023/01/18 00:37:13;;;;;;;15.18;7.75;;;;;;;-0.77;76.18;98961.69;5003423;28;20108;-61
2023/01/18 00:39:39;;;;;;;13.73;8.07;;;;;;;-0.81;75.82;98960.13;5006560;28;20441;-59
2023/01/18 00:44:49;;;;;;;18.35;7.03;;;;;;;-0.86;75.87;98957.72;5002323;28;20096;-60
2023/01/18 00:47:14;;;;;;;12.70;6.75;;;;;;;-0.84;76.62;98962.84;5005879;28;20094;-60
2023/01/18 00:49:40;;;;;;;13.38;6.80;;;;;;;-0.83;75.37;98967.13;5002449;28;20177;-60
2023/01/18 00:52:05;;;;;;;11.73;6.25;;;;;;;-0.86;75.57;98969.81;5003269;28;20097;-61
2023/01/18 00:54:31;;;;;;;13.27;6.93;;;;;;;-0.86;75.79;98970.63;5003092;28;20573;-60
2023/01/18 00:56:56;;;;;;;19.02;6.63;;;;;;;-0.84;75.31;98974.00;5006053;28;20545;-63
2023/01/18 00:59:22;;;;;;;15.75;6.68;;;;;;;-0.83;75.81;98967.13;5002674;28;20542;-60
2023/01/18 01:01:47;;;;;;;17.25;7.15;;;;;;;-0.81;75.85;98957.53;5002889;28;20534;-57
2023/01/18 01:06:57;;;;;;;16.90;7.35;;;;;;;-0.78;75.25;98967.75;5004099;28;20112;-62
2023/01/18 01:09:25;;;;;;;13.65;6.63;;;;;;;-0.78;75.15;98960.00;5002174;28;20078;-60
2023/01/18 01:28:22;;;;;;;12.35;5.88;;;;;;;-0.82;75.19;98963.59;5004976;28;20109;-60
2023/01/18 01:30:48;;;;;;;13.65;6.40;;;;;;;-0.79;75.13;98963.47;5006213;28;20086;-59
2023/01/18 01:33:16;;;;;;;11.23;6.15;;;;;;;-0.78;75.17;98967.75;5001841;28;20205;-58
2023/01/18 01:35:41;;;;;;;13.30;6.78;;;;;;;-0.76;75.06;98971.13;5003466;28;20094;-59
2023/01/18 01:38:06;;;;;;;11.50;6.25;;;;;;;-0.74;74.79;98971.91;5006977;28;20090;-59
2023/01/18 01:40:32;;;;;;;11.98;6.55;;;;;;;-0.70;74.84;98977.78;5004832;28;20530;-61
2023/01/18 01:42:57;;;;;;;17.20;7.28;;;;;;;-0.64;74.45;98987.88;5001699;28;20650;-60
2023/01/18 01:45:26;;;;;;;11.15;6.07;;;;;;;-0.60;74.64;99001.50;5002093;28;20102;-59
2023/01/18 01:47:54;;;;;;;12.20;6.75;;;;;;;-0.58;74.92;99008.28;5004508;28;20090;-59
2023/01/18 01:50:30;;;;;;;13.23;7.15;;;;;;;-0.56;74.70;99006.50;5006735;28;21411;-57
2023/01/18 01:52:57;;;;;;;10.40;6.65;;;;;;;-0.55;75.11;99012.50;5006758;28;20552;-57
2023/01/18 01:55:31;;;;;;;17.13;8.00;;;;;;;-0.58;74.45;99018.63;5007784;28;20177;-60
2023/01/18 01:58:04;;;;;;;13.88;7.15;;;;;;;-0.59;74.31;99018.69;5002704;28;20092;-59
2023/01/18 02:00:31;;;;;;;13.02;7.55;;;;;;;-0.59;75.11;99023.84;5004643;28;20075;-56
2023/01/18 02:03:04;;;;;;;11.80;6.55;;;;;;;-0.56;75.06;99026.34;5001346;28;20083;-56
2023/01/18 02:05:32;;;;;;;17.55;7.78;;;;;;;-0.51;74.60;99029.56;5002700;28;20098;-58
2023/01/18 02:08:00;;;;;;;17.45;7.95;;;;;;;-0.49;75.23;99033.78;4999562;28;20094;-62
2023/01/18 02:10:27;;;;;;;13.57;7.22;;;;;;;-0.49;75.12;99038.94;5007866;28;20136;-61
2023/01/18 02:12:54;;;;;;;13.32;8.55;;;;;;;-0.48;74.93;99042.34;5004339;28;20078;-60
2023/01/18 02:15:28;;;;;;;17.35;7.57;;;;;;;-0.49;74.63;99033.78;5002594;28;20152;-62
2023/01/18 02:18:02;;;;;;;16.48;8.13;;;;;;;-0.51;74.73;99034.72;5003523;28;20075;-59
2023/01/18 02:20:46;;;;;;;17.83;8.13;;;;;;;-0.49;74.55;99041.53;5002898;28;20201;-58
2023/01/18 02:23:34;;;;;;;18.75;7.65;;;;;;;-0.53;74.75;99042.53;5003701;28;20541;-61
2023/01/18 02:26:47;;;;;;;13.55;7.32;;;;;;;-0.53;74.23;99046.88;5005126;28;20975;-58
2023/01/18 02:29:18;;;;;;;18.17;8.35;;;;;;;-0.55;75.24;99059.03;5007218;28;20114;-60
2023/01/18 02:32:07;;;;;;;17.95;9.60;;;;;;;-0.52;74.78;99059.72;5006861;28;20082;-59
2023/01/18 02:34:40;;;;;;;16.27;7.38;;;;;;;-0.49;75.29;99048.44;5003353;28;20082;-57
2023/01/18 02:37:21;;;;;;;15.38;7.55;;;;;;;-0.51;74.24;99039.88;5003056;28;20651;-60
2023/01/18 02:40:03;;;;;;;14.00;7.78;;;;;;;-0.53;74.49;99033.97;5005763;28;20086;-58
2023/01/18 02:48:12;;;;;;;14.25;6.72;;;;;;;-0.82;74.62;99030.75;5002366;28;20097;-60
2023/01/18 02:50:38;;;;;;;15.80;7.72;;;;;;;-0.84;75.24;99035.97;5006956;28;20162;-61
2023/01/18 02:53:03;;;;;;;15.00;6.70;;;;;;;-0.79;74.98;99030.63;5003490;28;20446;-60
2023/01/18 02:55:41;;;;;;;12.75;6.82;;;;;;;-0.75;74.59;99028.75;5005742;28;20097;-60
2023/01/18 02:58:10;;;;;;;11.88;7.25;;;;;;;-0.75;74.61;99029.63;5008174;28;20105;-60
2023/01/18 03:00:40;;;;;;;15.38;7.50;;;;;;;-0.74;75.12;99022.69;5003939;28;20118;-59
2023/01/18 03:03:09;;;;;;;16.92;7.40;;;;;;;-0.74;74.65;99028.72;5006420;28;20086;-62
2023/01/18 03:05:37;;;;;;;16.38;7.78;;;;;;;-0.75;74.95;99037.38;5006588;28;20094;-60
2023/01/18 03:08:14;;;;;;;16.83;8.93;;;;;;;-0.74;75.07;99043.38;5002379;28;20125;-62
2023/01/18 03:10:58;;;;;;;17.08;9.38;;;;;;;-0.77;75.25;99039.16;5007780;28;20548;-62
2023/01/18 03:14:07;;;;;;;22.38;9.05;;;;;;;-0.76;75.14;99038.28;5006413;28;20492;-62
2023/01/18 03:17:11;;;;;;;17.00;9.57;;;;;;;-0.73;75.23;99034.72;4987263;28;20141;-62
2023/01/18 03:25:36;;;;;;;19.00;9.82;;;;;;;-0.71;74.75;99051.88;5004075;28;20101;-60
2023/01/18 03:33:46;;;;;;;13.63;7.90;;;;;;;-0.68;75.22;99048.31;5004130;28;20569;-59
2023/01/18 03:36:22;;;;;;;20.45;8.65;;;;;;;-0.67;75.44;99047.41;5006508;28;20102;-59
2023/01/18 03:39:12;;;;;;;18.38;8.65;;;;;;;-0.67;74.43;99050.81;5004972;28;20421;-58
2023/01/18 03:41:42;;;;;;;18.90;10.20;;;;;;;-0.67;75.03;99050.81;4997205;28;20085;-61
2023/01/18 03:44:16;;;;;;;21.40;9.95;;;;;;;-0.67;74.88;99042.25;5010578;28;20086;-59
2023/01/18 03:46:42;;;;;;;19.35;9.93;;;;;;;-0.66;75.13;99047.34;5006667;28;20098;-60
2023/01/18 03:49:09;;;;;;;17.50;10.13;;;;;;;-0.67;74.97;99050.81;5000208;28;20114;-59
2023/01/18 03:51:47;;;;;;;16.58;9.70;;;;;;;-0.65;74.82;99049.03;5005158;28;20087;-60
2023/01/18 03:54:32;;;;;;;20.67;10.10;;;;;;;-0.64;75.16;99034.38;5001280;28;20082;-57
2023/01/18 03:57:01;;;;;;;22.88;10.57;;;;;;;-0.59;75.57;99036.78;5002185;28;20086;-61
2023/01/18 03:59:33;;;;;;;19.77;10.95;;;;;;;-0.55;74.69;99035.75;5004498;28;20072;-60
2023/01/18 04:01:58;;;;;;;20.02;10.10;;;;;;;-0.62;74.92;99043.75;5003278;28;20070;-60
2023/01/18 04:04:24;;;;;;;25.77;10.48;;;;;;;-0.67;75.02;99056.00;5010087;28;20083;-57
2023/01/18 04:06:49;;;;;;;21.63;10.82;;;;;;;-0.64;74.85;99066.22;5003752;28;20349;-60
2023/01/18 04:09:15;;;;;;;13.95;7.03;;;;;;;-0.63;74.94;99051.56;5001930;28;20437;-59
2023/01/18 04:11:40;;;;;;;20.90;9.98;;;;;;;-0.60;75.25;99051.44;5003862;28;20437;-61
2023/01/18 04:14:06;;;;;;;21.83;11.55;;;;;;;-0.61;74.94;99060.09;5005559;28;20136;-60
2023/01/18 04:16:32;;;;;;;19.73;10.13;;;;;;;-0.58;74.83;99062.53;5000545;28;20098;-59
2023/01/18 04:18:57;;;;;;;20.25;12.25;;;;;;;-0.56;74.84;99072.84;5009599;28;20444;-61
2023/01/18 04:21:23;;;;;;;16.27;9.75;;;;;;;-0.55;75.02;99069.34;5004141;28;20085;-63
2023/01/18 04:23:48;;;;;;;21.90;10.60;;;;;;;-0.60;74.76;99058.34;5008812;28;20106;-58
2023/01/18 04:26:15;;;;;;;22.20;10.05;;;;;;;-0.58;75.18;99059.13;5007787;28;20128;-60
2023/01/18 04:28:41;;;;;;;17.10;9.95;;;;;;;-0.58;75.29;99064.31;5002588;28;20443;-62
2023/01/18 04:31:07;;;;;;;23.17;10.50;;;;;;;-0.57;74.77;99055.66;5002794;28;20090;-59
2023/01/18 04:33:33;;;;;;;20.73;10.30;;;;;;;-0.54;74.38;99050.38;5002278;28;20090;-61
2023/01/18 04:35:58;;;;;;;21.40;9.93;;;;;;;-0.52;75.12;99051.13;5005423;28;20477;-60
2023/01/18 04:38:24;;;;;;;20.30;8.98;;;;;;;-0.49;74.82;99051.00;5004543;28;20102;-61
2023/01/18 04:40:49;;;;;;;18.88;9.27;;;;;;;-0.47;74.63;99044.91;5000970;28;20070;-61
2023/01/18 04:43:15;;;;;;;22.33;9.90;;;;;;;-0.46;74.47;99045.72;5002045;28;20082;-61
2023/01/18 04:45:40;;;;;;;19.88;10.25;;;;;;;-0.44;74.41;99040.47;5003382;28;20109;-61
2023/01/18 04:48:06;;;;;;;22.67;10.77;;;;;;;-0.43;74.46;99048.19;5001538;28;20530;-60
2023/01/18 04:50:32;;;;;;;21.25;9.73;;;;;;;-0.46;74.32;99048.31;5004507;28;20185;-62
2023/01/18 04:52:57;;;;;;;33.72;14.52;;;;;;;-0.50;74.60;99051.91;5007224;28;20165;-62
2023/01/18 04:55:23;;;;;;;25.60;11.60;;;;;;;-0.54;75.15;99052.97;5005617;28;20109;-61
2023/01/18 04:57:55;;;;;;;24.58;11.85;;;;;;;-0.57;75.10;99053.06;5008212;28;20074;-61
2023/01/18 05:00:21;;;;;;;20.90;10.98;;;;;;;-0.59;75.27;99063.44;5001159;28;20087;-60
2023/01/18 05:02:47;;;;;;;24.42;10.40;;;;;;;-0.60;75.25;99059.16;5003365;28;20089;-61
2023/01/18 05:05:12;;;;;;;25.88;11.65;;;;;;;-0.64;75.14;99058.47;5001429;28;20074;-61
2023/01/18 05:07:38;;;;;;;23.52;11.75;;;;;;;-0.70;74.79;99058.72;5002885;28;20421;-62
2023/01/18 05:10:04;;;;;;;25.33;10.25;;;;;;;-0.74;75.20;99064.88;5008432;28;20550;-61
2023/01/18 05:12:29;;;;;;;20.48;11.13;;;;;;;-0.74;74.91;99064.88;5007476;28;20086;-61
2023/01/18 05:14:55;;;;;;;24.02;10.27;;;;;;;-0.78;75.20;99059.00;5003145;28;20190;-62
2023/01/18 05:17:26;;;;;;;29.85;11.98;;;;;;;-0.77;75.54;99070.16;5003109;28;20082;-61
2023/01/18 05:19:55;;;;;;;31.77;10.98;;;;;;;-0.74;74.98;99064.03;5001653;28;20112;-58
2023/01/18 05:22:21;;;;;;;22.70;10.82;;;;;;;-0.70;75.59;99063.88;5003691;28;20071;-58
2023/01/18 05:24:47;;;;;;;28.08;10.80;;;;;;;-0.68;74.68;99064.63;5003743;28;20088;-62
2023/01/18 05:27:12;;;;;;;19.63;10.15;;;;;;;-0.63;75.25;99070.47;5001204;28;20102;-57
2023/01/18 05:29:38;;;;;;;23.50;10.65;;;;;;;-0.64;75.19;99070.56;5001085;28;20405;-58
2023/01/18 05:32:09;;;;;;;18.67;10.27;;;;;;;-0.64;75.47;99080.88;4989484;28;20090;-59
2023/01/18 05:34:34;;;;;;;20.23;9.95;;;;;;;-0.59;75.18;99083.28;4997945;28;20338;-59
2023/01/18 05:37:00;;;;;;;23.15;10.88;;;;;;;-0.64;75.41;99089.47;4999090;28;20110;-61
2023/01/18 05:39:26;;;;;;;18.10;9.65;;;;;;;-0.63;75.56;99093.72;4994205;28;20167;-59
2023/01/18 05:41:51;;;;;;;20.65;9.02;;;;;;;-0.62;75.18;99098.00;5001285;28;20082;-62
2023/01/18 05:44:16;;;;;;;18.80;10.45;;;;;;;-0.62;75.35;99105.75;4998467;28;20082;-58
2023/01/18 05:46:42;;;;;;;25.25;8.93;;;;;;;-0.64;75.10;99102.38;5002096;28;20105;-59
2023/01/18 05:49:07;;;;;;;22.35;10.20;;;;;;;-0.62;75.45;99107.50;4999524;28;20082;-61
2023/01/18 05:51:34;;;;;;;25.30;9.25;;;;;;;-0.63;75.66;99109.22;4995062;28;20105;-58
2023/01/18 05:53:59;;;;;;;19.65;9.88;;;;;;;-0.61;75.77;99106.59;5012249;28;20089;-59
2023/01/18 05:56:25;;;;;;;21.13;11.63;;;;;;;-0.63;75.44;99109.22;5019694;28;20098;-60
2023/01/18 05:58:50;;;;;;;24.40;11.18;;;;;;;-0.63;75.40;99116.97;5007865;28;20082;-58
2023/01/18 06:01:16;;;;;;;17.63;9.52;;;;;;;-0.63;76.04;99123.91;5010352;28;20559;-61
2023/01/18 06:03:41;;;;;;;21.50;9.50;;;;;;;-0.59;75.56;99132.38;5012376;28;20533;-62
2023/01/18 06:06:07;;;;;;;22.60;9.88;;;;;;;-0.57;75.80;99125.41;5008726;28;20094;-61
2023/01/18 06:08:33;;;;;;;24.13;11.20;;;;;;;-0.55;75.75;99127.03;5013276;28;20098;-62
2023/01/18 06:10:59;;;;;;;21.55;10.25;;;;;;;-0.53;76.37;99134.75;5004432;28;20086;-60
2023/01/18 06:13:27;;;;;;;21.30;9.88;;;;;;;-0.53;75.65;99132.16;5015521;28;20089;-61
2023/01/18 06:15:53;;;;;;;20.17;9.45;;;;;;;-0.55;76.17;99141.69;5007835;28;20329;-61
2023/01/18 06:18:20;;;;;;;18.85;9.65;;;;;;;-0.57;76.15;99133.16;5008042;28;20751;-59
2023/01/18 06:20:45;;;;;;;24.60;11.55;;;;;;;-0.57;75.28;99139.16;5012326;28;20070;-60
2023/01/18 06:23:11;;;;;;;26.73;11.35;;;;;;;-0.55;75.77;99131.38;5010896;28;20078;-58
2023/01/18 06:25:36;;;;;;;30.98;15.32;;;;;;;-0.53;75.80;99138.16;5015494;28;20545;-59
2023/01/18 06:28:03;;;;;;;51.17;21.63;;;;;;;-0.50;76.11;99134.59;5014858;28;20074;-60
2023/01/18 06:30:30;;;;;;;26.95;12.70;;;;;;;-0.48;75.95;99143.13;5013425;28;20457;-57
2023/01/18 06:32:55;;;;;;;28.23;11.75;;;;;;;-0.43;75.82;99142.97;5009412;28;20101;-61
2023/01/18 06:35:21;;;;;;;21.77;10.30;;;;;;;-0.41;75.41;99148.91;5010514;28;20094;-61
2023/01/18 06:37:46;;;;;;;20.95;9.75;;;;;;;-0.38;75.36;99146.22;5013871;28;20557;-61
2023/01/18 06:40:13;;;;;;;28.05;11.02;;;;;;;-0.39;75.65;99142.81;5011145;28;20440;-61
2023/01/18 06:42:39;;;;;;;22.55;10.32;;;;;;;-0.38;75.79;99144.47;5008227;28;20074;-62
2023/01/18 06:45:04;;;;;;;25.67;10.30;;;;;;;-0.39;76.20;99158.31;5012037;28;20426;-61
2023/01/18 06:47:30;;;;;;;22.70;10.50;;;;;;;-0.38;75.85;99162.56;5011318;28;20086;-61
2023/01/18 06:49:56;;;;;;;24.50;10.63;;;;;;;-0.35;76.30;99165.03;5014415;28;20469;-59
2023/01/18 06:52:21;;;;;;;19.88;10.57;;;;;;;-0.33;75.94;99160.66;5012411;28;20074;-62
2023/01/18 06:54:46;;;;;;;21.45;10.25;;;;;;;-0.33;75.33;99152.06;5011759;28;20074;-61
2023/01/18 06:57:12;;;;;;;19.50;10.40;;;;;;;-0.37;75.54;99164.25;5008528;28;20188;-58
2023/01/18 06:59:38;;;;;;;35.38;14.02;;;;;;;-0.40;75.28;99169.56;5008942;28;20128;-60
2023/01/18 07:02:04;;;;;;;33.10;14.48;;;;;;;-0.44;75.74;99169.69;5009856;28;20102;-60
2023/01/18 07:04:31;;;;;;;18.90;8.25;;;;;;;-0.48;75.47;99179.31;5009087;28;20161;-61
2023/01/18 07:06:57;;;;;;;20.70;10.45;;;;;;;-0.48;76.21;99179.31;5007389;28;20971;-59
2023/01/18 07:09:23;;;;;;;24.80;10.80;;;;;;;-0.48;75.87;99184.47;5006637;28;20580;-59
2023/01/18 07:11:48;;;;;;;30.02;10.27;;;;;;;-0.50;76.18;99181.13;5002681;28;20090;-60
2023/01/18 07:14:14;;;;;;;22.17;10.70;;;;;;;-0.52;75.55;99183.75;5006448;28;20080;-58
2023/01/18 07:16:40;;;;;;;21.92;10.95;;;;;;;-0.52;76.65;99188.94;5005010;28;20102;-56
2023/01/18 07:19:05;;;;;;;22.92;10.57;;;;;;;-0.50;76.34;99192.31;5009838;28;20558;-59
2023/01/18 07:21:31;;;;;;;21.63;10.45;;;;;;;-0.41;75.89;99193.72;5009463;28;20445;-62
2023/01/18 07:23:58;;;;;;;21.25;10.30;;;;;;;-0.38;76.12;99201.31;5000529;28;20081;-60
2023/01/18 07:26:26;;;;;;;26.42;11.98;;;;;;;-0.31;75.87;99196.78;5007635;28;20098;-60
2023/01/18 07:28:54;;;;;;;20.67;10.05;;;;;;;-0.26;75.88;99204.38;5011668;28;20126;-56
2023/01/18 07:31:20;;;;;;;26.55;11.77;;;;;;;-0.27;75.72;99203.50;5007710;28;20082;-58
2023/01/18 07:33:46;;;;;;;20.15;10.95;;;;;;;-0.23;75.41;99209.44;5015396;28;20158;-60
2023/01/18 07:36:12;;;;;;;17.73;10.27;;;;;;;-0.20;76.07;99214.47;5012378;28;20098;-60
2023/01/18 07:38:39;;;;;;;22.00;9.98;;;;;;;-0.16;75.84;99205.69;5011825;28;20592;-58
2023/01/18 07:41:07;;;;;;;24.35;10.98;;;;;;;-0.11;76.02;99210.69;5011712;28;20496;-58
2023/01/18 07:43:36;;;;;;;25.40;12.40;;;;;;;-0.07;75.88;99199.34;5004974;28;20157;-61
2023/01/18 07:46:02;;;;;;;24.92;10.48;;;;;;;-0.07;75.00;99213.09;5008814;28;20213;-60
2023/01/18 07:48:28;;;;;;;26.35;11.27;;;;;;;-0.06;75.50;99216.53;5006214;28;20078;-61
2023/01/18 07:50:56;;;;;;;19.80;11.65;;;;;;;-0.08;75.36;99221.78;5009643;28;20165;-57
2023/01/18 07:53:23;;;;;;;23.15;10.88;;;;;;;-0.07;75.76;99209.69;5004413;28;20653;-57
2023/01/18 07:55:49;;;;;;;21.92;10.82;;;;;;;-0.08;76.00;99206.25;5005069;28;20096;-57
2023/01/18 07:58:16;;;;;;;20.38;9.68;;;;;;;-0.10;75.44;99204.63;5005108;28;20555;-56
2023/01/18 08:00:41;;;;;;;24.48;12.27;;;;;;;-0.08;75.76;99206.25;5004483;28;20584;-61
2023/01/18 08:03:11;;;;;;;22.38;10.90;;;;;;;-0.07;75.47;99210.50;5012037;28;20078;-57
2023/01/18 08:05:36;;;;;;;20.25;9.93;;;;;;;-0.10;75.55;99212.38;5006582;28;20098;-57
2023/01/18 08:08:02;;;;;;;21.02;9.60;;;;;;;-0.11;75.67;99216.72;5006166;28;20086;-60
2023/01/18 08:10:28;;;;;;;14.68;7.05;;;;;;;-0.14;75.83;99211.66;5010248;28;20232;-60
2023/01/18 08:12:54;;;;;;;20.20;11.10;;;;;;;-0.15;75.87;99220.31;5007066;28;20153;-59
2023/01/18 08:15:19;;;;;;;22.63;11.15;;;;;;;-0.13;75.23;99223.69;5008478;28;20624;-59
2023/01/18 08:17:45;;;;;;;25.67;11.32;;;;;;;-0.14;75.70;99218.56;4999504;28;20106;-62
2023/01/18 08:20:11;;;;;;;22.05;11.00;;;;;;;-0.13;76.19;99221.09;5006623;28;20075;-57
2023/01/18 08:22:36;;;;;;;24.00;9.77;;;;;;;-0.11;76.12;99229.66;5006758;28;20546;-61
2023/01/18 08:25:02;;;;;;;25.63;11.55;;;;;;;-0.07;76.15;99231.19;5010770;28;20085;-60
2023/01/18 08:27:28;;;;;;;23.00;10.30;;;;;;;-0.02;75.81;99233.63;5008918;28;20074;-61
2023/01/18 08:29:53;;;;;;;23.30;10.75;;;;;;;0.02;75.43;99234.34;5006737;28;20129;-61
2023/01/18 08:32:19;;;;;;;15.23;6.65;;;;;;;0.04;75.91;99232.53;5008016;28;20086;-58
2023/01/18 08:34:44;;;;;;;18.13;9.13;;;;;;;0.07;75.56;99227.25;5003162;28;20082;-59
2023/01/18 08:37:10;;;;;;;24.77;11.57;;;;;;;0.06;76.05;99225.56;5007333;28;20116;-61
2023/01/18 08:39:37;;;;;;;26.17;11.35;;;;;;;0.09;75.53;99231.47;5006495;28;20082;-61
2023/01/18 08:42:03;;;;;;;21.05;10.73;;;;;;;0.08;75.67;99229.78;5005303;28;20086;-61
2023/01/18 08:44:28;;;;;;;24.27;11.52;;;;;;;0.11;75.97;99228.81;5004573;28;20094;-62
2023/01/18 08:46:54;;;;;;;22.00;11.27;;;;;;;0.13;75.62;99237.34;5008398;28;20125;-60
2023/01/18 08:49:19;;;;;;;23.17;11.20;;;;;;;0.17;75.85;99233.75;5006297;28;20137;-61
2023/01/18 08:51:45;;;;;;;24.13;11.52;;;;;;;0.18;75.33;99230.25;5003508;28;20091;-60
2023/01/18 08:54:10;;;;;;;25.48;10.80;;;;;;;0.21;75.70;99230.16;5006421;28;20082;-62
2023/01/18 08:56:36;;;;;;;26.30;10.90;;;;;;;0.26;75.65;99227.38;5007311;28;20084;-61
2023/01/18 08:59:01;;;;;;;24.20;11.50;;;;;;;0.30;75.56;99224.59;5005912;28;20075;-61
2023/01/18 09:01:27;;;;;;;23.30;10.90;;;;;;;0.35;75.54;99221.81;5002685;28;20450;-58
2023/01/18 09:03:54;;;;;;;23.42;11.57;;;;;;;0.36;75.88;99223.50;5007912;28;20169;-60
2023/01/18 09:06:20;;;;;;;28.30;11.05;;;;;;;0.41;75.71;99220.72;5004776;28;20119;-59
2023/01/18 09:08:47;;;;;;;21.95;10.98;;;;;;;0.43;75.17;99218.94;5011092;28;20086;-59
2023/01/18 09:11:13;;;;;;;23.70;10.88;;;;;;;0.44;75.78;99213.72;5009786;28;20105;-58
2023/01/18 09:13:42;;;;;;;26.63;11.13;;;;;;;0.44;75.61;99220.63;5010247;28;20078;-58
2023/01/18 09:16:09;;;;;;;36.63;16.40;;;;;;;0.48;75.59;99222.19;5012295;28;20121;-60
2023/01/18 09:18:35;;;;;;;27.17;13.07;;;;;;;0.53;76.04;99217.63;5005145;28;20136;-57
2023/01/18 09:21:09;;;;;;;27.90;11.63;;;;;;;0.59;75.73;99213.97;5005706;28;20182;-58
2023/01/18 09:23:36;;;;;;;21.42;11.50;;;;;;;0.61;75.75;99222.50;5007368;28;20074;-56
2023/01/18 09:26:15;;;;;;;24.80;11.25;;;;;;;0.62;75.66;99213.00;5010946;28;20149;-58
2023/01/18 09:28:47;;;;;;;28.25;14.27;;;;;;;0.63;75.25;99212.09;5025140;28;20094;-56
2023/01/18 09:31:13;;;;;;;23.98;12.63;;;;;;;0.62;75.95;99215.59;5006757;28;20078;-60
2023/01/18 09:33:41;;;;;;;28.38;13.02;;;;;;;0.65;75.68;99208.53;5005563;28;20070;-61
2023/01/18 09:36:08;;;;;;;23.33;12.55;;;;;;;0.69;75.57;99217.00;5010428;28;20102;-61
2023/01/18 09:38:35;;;;;;;39.78;14.75;;;;;;;0.72;75.77;99217.75;5008028;28;20096;-59
2023/01/18 09:41:02;;;;;;;35.03;14.85;;;;;;;0.80;75.59;99221.75;5000086;28;20597;-58
2023/01/18 09:43:27;;;;;;;29.13;13.57;;;;;;;0.89;75.80;99227.38;5005157;28;20086;-60
2023/01/18 09:45:54;;;;;;;22.10;13.20;;;;;;;0.97;75.32;99229.66;5001630;28;20601;-59
2023/01/18 09:48:38;;;;;;;23.23;13.52;;;;;;;1.02;75.38;99234.63;5007216;28;20096;-60
2023/01/18 09:51:14;;;;;;;24.92;12.40;;;;;;;1.10;75.17;99231.72;4998573;28;20543;-57
2023/01/18 09:54:12;;;;;;;23.38;10.70;;;;;;;1.12;75.00;99237.69;5003290;28;20161;-60
2023/01/18 09:56:53;;;;;;;22.98;13.02;;;;;;;1.20;74.87;99239.03;5002282;28;20102;-57
2023/01/18 09:59:43;;;;;;;27.50;13.77;;;;;;;1.31;74.97;99243.75;5001325;28;20089;-61
2023/01/18 10:02:22;;;;;;;24.48;11.93;;;;;;;1.36;75.22;99238.38;5021061;28;20152;-60
2023/01/18 10:05:04;;;;;;;21.77;12.98;;;;;;;1.45;74.97;99242.31;5006348;28;20076;-57
2023/01/18 10:07:34;;;;;;;29.17;14.35;;;;;;;1.57;74.94;99248.72;5011079;28;20070;-59
2023/01/18 10:10:02;;;;;;;26.35;13.50;;;;;;;1.69;74.54;99242.97;5004324;28;20193;-61
2023/01/18 10:12:42;;;;;;;29.60;13.00;;;;;;;1.75;74.41;99242.69;5003187;28;20074;-58
2023/01/18 10:15:19;;;;;;;24.92;11.73;;;;;;;1.78;74.43;99250.31;5004749;28;20078;-61
2023/01/18 10:17:46;;;;;;;23.60;13.25;;;;;;;1.83;74.46;99256.16;5002777;28;20089;-59
2023/01/18 10:20:41;;;;;;;25.20;12.77;;;;;;;1.87;74.68;99250.84;5002091;28;20085;-61
2023/01/18 10:23:22;;;;;;;27.20;12.70;;;;;;;1.92;74.56;99252.31;5001534;28;20204;-60
2023/01/18 10:25:58;;;;;;;56.35;25.35;;;;;;;1.95;74.53;99256.50;5010791;28;20117;-60
2023/01/18 10:28:52;;;;;;;23.73;13.35;;;;;;;1.98;74.59;99253.78;5001409;28;20078;-61
2023/01/18 10:31:31;;;;;;;29.10;13.70;;;;;;;2.00;74.42;99257.13;4994956;28;20153;-61
2023/01/18 10:33:59;;;;;;;27.48;13.50;;;;;;;2.04;74.35;99256.06;5004522;28;20458;-61
2023/01/18 10:36:33;;;;;;;22.27;11.98;;;;;;;2.06;74.42;99246.47;5008978;28;20125;-62
2023/01/18 10:39:13;;;;;;;25.65;12.20;;;;;;;2.07;74.19;99253.34;5006243;28;20568;-61
2023/01/18 10:41:40;;;;;;;26.52;12.65;;;;;;;2.13;74.15;99247.88;5012348;28;20492;-62
2023/01/18 10:44:08;;;;;;;25.00;12.32;;;;;;;2.13;74.37;99244.41;5013371;28;20082;-60
2023/01/18 10:46:34;;;;;;;23.55;11.65;;;;;;;2.20;74.23;99247.56;5011144;28;20173;-58
2023/01/18 10:48:59;;;;;;;20.83;11.75;;;;;;;2.22;74.28;99246.59;5007681;28;20090;-60
2023/01/18 10:51:25;;;;;;;21.48;11.27;;;;;;;2.28;74.22;99240.28;5013367;28;20460;-60
2023/01/18 10:53:50;;;;;;;26.15;13.57;;;;;;;2.33;73.98;99248.69;5013745;28;20188;-59
2023/01/18 10:56:19;;;;;;;20.08;11.82;;;;;;;2.40;73.91;99254.44;5012621;28;20148;-59
2023/01/18 10:58:45;;;;;;;21.50;12.02;;;;;;;2.50;73.83;99252.19;5006587;28;20090;-58
2023/01/18 11:01:41;;;;;;;22.52;11.48;;;;;;;2.60;73.71;99250.88;5013251;28;20074;-61
2023/01/18 11:04:27;;;;;;;33.92;15.10;;;;;;;2.66;73.38;99250.53;5008830;28;20989;-59
2023/01/18 11:06:56;;;;;;;23.70;13.50;;;;;;;2.68;73.24;99263.47;5003047;28;20185;-58
2023/01/18 11:09:27;;;;;;;23.00;11.10;;;;;;;2.70;73.24;99259.88;5007280;28;20098;-58
2023/01/18 11:12:37;;;;;;;26.73;11.95;;;;;;;2.73;73.33;99271.88;5006361;28;20097;-56
2023/01/18 11:15:14;;;;;;;35.60;15.27;;;;;;;2.79;73.41;99268.16;5003246;28;20082;-57
2023/01/18 11:17:43;;;;;;;26.98;14.70;;;;;;;2.78;73.56;99269.91;5005357;28;20224;-58
2023/01/18 11:20:17;;;;;;;25.70;15.00;;;;;;;2.77;73.73;99269.97;4999276;28;20070;-61
2023/01/18 11:22:57;;;;;;;24.08;12.93;;;;;;;2.74;73.66;99268.34;5001860;28;20082;-58
2023/01/18 11:25:25;;;;;;;21.52;12.10;;;;;;;2.72;73.67;99276.25;5005503;28;20102;-61
2023/01/18 11:27:50;;;;;;;15.05;7.47;;;;;;;2.69;73.73;99267.75;5004435;28;20082;-58
2023/01/18 11:30:24;;;;;;;24.67;13.32;;;;;;;2.69;73.79;99272.97;5003377;28;20233;-61
2023/01/18 11:32:51;;;;;;;23.85;13.13;;;;;;;2.65;73.55;99274.84;5004862;28;20538;-61
2023/01/18 11:35:31;;;;;;;19.13;12.00;;;;;;;2.59;73.49;99269.97;5001816;28;20615;-61
2023/01/18 11:38:02;;;;;;;21.17;11.95;;;;;;;2.59;73.66;99275.16;5001790;28;20102;-61
2023/01/18 11:40:29;;;;;;;21.42;11.18;;;;;;;2.58;73.54;99274.28;5006726;28;20201;-59
2023/01/18 11:43:08;;;;;;;28.00;10.73;;;;;;;2.57;73.31;99276.97;5003584;28;20169;-58
2023/01/18 11:45:42;;;;;;;25.55;12.15;;;;;;;2.63;73.43;99268.03;5007283;28;20098;-56
2023/01/18 11:48:28;;;;;;;20.02;11.20;;;;;;;2.66;73.50;99267.91;4999594;28;20127;-59
2023/01/18 11:51:06;;;;;;;21.02;11.98;;;;;;;2.70;73.45;99269.44;5000407;28;20177;-61
2023/01/18 11:54:13;;;;;;;21.75;11.52;;;;;;;2.71;73.38;99269.34;5001934;28;20163;-58
2023/01/18 11:56:49;;;;;;;19.58;10.88;;;;;;;2.73;73.41;99277.06;4998525;28;20569;-59
2023/01/18 11:59:22;;;;;;;20.15;9.15;;;;;;;2.66;73.07;99271.31;5000703;28;20179;-59
2023/01/18 12:01:47;;;;;;;20.02;10.27;;;;;;;2.62;73.19;99280.19;5005299;28;20070;-61
2023/01/18 12:04:39;;;;;;;17.92;9.52;;;;;;;2.56;73.27;99275.28;5001941;28;20074;-57
2023/01/18 12:07:15;;;;;;;19.80;9.65;;;;;;;2.53;73.72;99272.84;5006025;28;20097;-61
2023/01/18 12:09:54;;;;;;;21.48;12.02;;;;;;;2.56;73.88;99270.97;5001470;28;20129;-60
2023/01/18 12:12:42;;;;;;;21.85;11.10;;;;;;;2.58;73.85;99273.47;5002111;28;20090;-59